Time;durP1;ratioP1;P1;durP2;ratioP2;P2;SDS_P1;SDS_P2;PMS_P1;PMS_P2;Temp;Humidity;BMP_temperature;BMP_pressure;BME280_temperature;BME280_humidity;BME280_pressure;Samples;Min_cycle;Max_cycle;Signal;HPM_P1;HPM_P2
2022/08/04 00:01:36;;;;;;;7.72;1.95;;;30.30;99.90;;;;;;5031084;28;20120;-49
2022/08/04 00:04:13;;;;;;;4.15;1.95;;;30.40;99.90;;;;;;5031153;28;20109;-49
2022/08/04 00:06:49;;;;;;;5.45;1.75;;;30.30;99.90;;;;;;5030056;28;20024;-49
2022/08/04 00:09:59;;;;;;;3.55;1.63;;;30.30;99.90;;;;;;5031117;28;20026;-49
2022/08/04 00:12:29;;;;;;;5.15;1.73;;;30.30;99.90;;;;;;5031090;28;20026;-49
2022/08/04 00:14:58;;;;;;;4.55;2.35;;;30.30;99.90;;;;;;5031157;28;20037;-48
2022/08/04 00:17:32;;;;;;;5.57;2.63;;;30.30;99.90;;;;;;5031123;28;20299;-49
2022/08/04 00:20:00;;;;;;;3.75;1.88;;;30.30;99.90;;;;;;5031074;28;20041;-49
2022/08/04 00:22:29;;;;;;;8.57;1.90;;;30.20;99.90;;;;;;5031153;28;20028;-49
2022/08/04 00:24:56;;;;;;;4.25;1.83;;;30.20;99.90;;;;;;5030891;28;20026;-49
2022/08/04 00:27:22;;;;;;;7.03;1.88;;;30.20;99.90;;;;;;5030959;28;20057;-48
2022/08/04 00:29:48;;;;;;;4.82;1.83;;;30.20;99.90;;;;;;5030942;28;20413;-49
2022/08/04 00:32:16;;;;;;;4.55;2.25;;;30.20;99.90;;;;;;5030765;28;20255;-48
2022/08/04 00:34:43;;;;;;;5.85;1.80;;;30.20;99.90;;;;;;5030955;28;20028;-49
2022/08/04 00:37:09;;;;;;;3.80;1.75;;;30.20;99.90;;;;;;5031296;28;20021;-49
2022/08/04 00:39:36;;;;;;;5.90;2.35;;;30.20;99.90;;;;;;5030850;28;20084;-48
2022/08/04 00:42:23;;;;;;;4.50;1.60;;;30.20;99.90;;;;;;5029253;28;20268;-48
2022/08/04 00:45:26;;;;;;;6.00;1.70;;;30.20;99.90;;;;;;5031838;28;20108;-49
2022/08/04 00:48:29;;;;;;;4.13;1.73;;;30.10;99.90;;;;;;5034423;28;20108;-49
2022/08/04 00:51:20;;;;;;;7.40;1.92;;;30.10;99.90;;;;;;5034756;28;20504;-49
2022/08/04 00:54:12;;;;;;;5.47;2.05;;;30.10;99.90;;;;;;5011237;28;20065;-48
2022/08/04 00:56:43;;;;;;;6.50;4.35;;;30.00;99.90;;;;;;5034619;28;20395;-48
2022/08/04 00:59:28;;;;;;;3.95;2.08;;;30.10;99.90;;;;;;5035031;28;20385;-48
2022/08/04 01:02:06;;;;;;;3.92;1.65;;;30.10;99.90;;;;;;5034173;28;20485;-48
2022/08/04 01:04:47;;;;;;;6.20;2.42;;;30.10;99.90;;;;;;5034407;28;20053;-49
2022/08/04 01:07:45;;;;;;;5.03;1.80;;;30.10;99.90;;;;;;5034352;28;20056;-48
2022/08/04 01:10:20;;;;;;;3.25;1.98;;;30.10;99.90;;;;;;5034412;28;20497;-48
2022/08/04 01:12:54;;;;;;;5.32;2.05;;;30.10;99.90;;;;;;5034172;28;20022;-48
2022/08/04 01:15:38;;;;;;;3.67;1.63;;;30.10;99.90;;;;;;5034126;28;20029;-48
2022/08/04 01:18:06;;;;;;;5.68;1.90;;;30.10;99.90;;;;;;5032835;28;20026;-48
2022/08/04 01:20:41;;;;;;;4.78;1.85;;;30.00;99.90;;;;;;5033950;28;20083;-48
2022/08/04 01:23:32;;;;;;;4.45;1.80;;;30.00;99.90;;;;;;5034056;28;20021;-48
2022/08/04 01:26:30;;;;;;;4.82;1.30;;;30.00;99.90;;;;;;5026913;28;20048;-48
2022/08/04 01:29:10;;;;;;;3.60;1.67;;;30.00;99.90;;;;;;5005330;28;20393;-48
2022/08/04 01:31:45;;;;;;;3.50;1.60;;;30.00;99.90;;;;;;5032504;28;20087;-48
2022/08/04 01:34:12;;;;;;;3.80;1.40;;;30.00;99.90;;;;;;5033857;28;20029;-48
2022/08/04 01:36:45;;;;;;;6.00;1.65;;;30.00;99.90;;;;;;5032523;28;20033;-48
2022/08/04 01:41:58;;;;;;;6.15;1.75;;;30.00;99.90;;;;;;5033617;28;20440;-49
2022/08/04 01:44:28;;;;;;;6.55;1.60;;;30.00;99.90;;;;;;5033602;28;20032;-48
2022/08/04 01:46:54;;;;;;;1.70;1.48;;;30.00;99.90;;;;;;5033432;28;20083;-49
2022/08/04 01:49:21;;;;;;;4.25;1.50;;;30.00;99.90;;;;;;5033680;28;20021;-48
2022/08/04 01:51:48;;;;;;;;;;;30.00;99.90;;;;;;5033952;28;20032;-48
2022/08/04 01:54:16;;;;;;;4.82;1.67;;;30.00;99.90;;;;;;5033269;28;19909;-48
2022/08/04 01:56:44;;;;;;;3.38;1.50;;;30.00;99.90;;;;;;5033609;28;20117;-49
2022/08/04 01:59:14;;;;;;;6.40;2.50;;;30.00;99.90;;;;;;5033814;28;20037;-48
2022/08/04 02:01:39;;;;;;;5.68;1.92;;;30.00;99.90;;;;;;5033206;28;20053;-48
2022/08/04 02:04:05;;;;;;;3.55;1.50;;;30.00;99.90;;;;;;5033113;28;20033;-49
2022/08/04 02:06:49;;;;;;;4.50;1.83;;;29.90;99.90;;;;;;5033179;28;20044;-48
2022/08/04 02:10:03;;;;;;;2.33;1.67;;;29.90;99.90;;;;;;5033157;28;20033;-48
2022/08/04 02:12:56;;;;;;;8.30;1.70;;;29.90;99.90;;;;;;5019818;28;20551;-50
2022/08/04 02:15:40;;;;;;;3.67;2.05;;;29.90;99.90;;;;;;5032941;28;20026;-49
2022/08/04 02:18:30;;;;;;;4.40;1.60;;;29.80;99.90;;;;;;5033077;28;20794;-48
2022/08/04 02:21:01;;;;;;;3.97;1.67;;;29.80;99.90;;;;;;5032832;28;20057;-49
2022/08/04 02:23:36;;;;;;;6.60;3.88;;;29.80;99.90;;;;;;5032917;28;20033;-49
2022/08/04 02:26:05;;;;;;;5.75;3.28;;;29.80;99.90;;;;;;5032621;28;20049;-49
2022/08/04 02:28:36;;;;;;;3.88;2.03;;;29.80;99.90;;;;;;5032846;28;20079;-48
2022/08/04 02:31:22;;;;;;;3.60;2.58;;;29.80;99.90;;;;;;5032712;28;20504;-48
2022/08/04 02:34:03;;;;;;;5.90;2.15;;;29.80;99.90;;;;;;5021910;28;20224;-48
2022/08/04 02:36:37;;;;;;;4.28;1.90;;;29.80;99.90;;;;;;5032427;28;20469;-49
2022/08/04 02:39:05;;;;;;;3.85;2.00;;;29.80;99.90;;;;;;5032414;28;20117;-49
2022/08/04 02:41:32;;;;;;;4.40;2.20;;;29.80;99.90;;;;;;5032339;28;20033;-49
2022/08/04 02:44:05;;;;;;;4.43;2.25;;;29.80;99.90;;;;;;5032566;28;20350;-48
2022/08/04 02:46:33;;;;;;;5.68;1.83;;;29.90;99.90;;;;;;5032216;28;20108;-48
2022/08/04 02:49:05;;;;;;;4.57;1.52;;;29.90;99.90;;;;;;5032181;28;20033;-49
2022/08/04 02:51:43;;;;;;;4.22;1.42;;;29.90;99.90;;;;;;5030920;28;20018;-49
2022/08/04 02:54:10;;;;;;;4.68;1.58;;;29.90;99.90;;;;;;5032060;28;20040;-49
2022/08/04 02:56:38;;;;;;;4.68;1.75;;;29.90;99.90;;;;;;5032143;28;20109;-49
2022/08/04 02:59:09;;;;;;;5.03;1.50;;;29.90;99.90;;;;;;5032643;28;20041;-49
2022/08/04 03:01:36;;;;;;;4.80;1.70;;;29.90;99.90;;;;;;5031810;28;20073;-48
2022/08/04 03:04:26;;;;;;;3.75;1.83;;;29.90;99.90;;;;;;5031990;28;20504;-49
2022/08/04 03:07:10;;;;;;;4.82;1.58;;;29.90;99.90;;;;;;5030100;28;20037;-49
2022/08/04 03:09:54;;;;;;;3.17;1.45;;;29.90;99.90;;;;;;5031912;28;20026;-49
2022/08/04 03:12:34;;;;;;;4.28;2.15;;;29.90;99.90;;;;;;5030542;28;20083;-49
2022/08/04 03:15:23;;;;;;;2.47;1.30;;;29.90;99.90;;;;;;5031842;28;20052;-49
2022/08/04 03:17:52;;;;;;;3.38;1.95;;;29.90;99.90;;;;;;5024084;28;20037;-49
2022/08/04 03:20:55;;;;;;;3.75;1.40;;;29.90;99.90;;;;;;5030518;28;20069;-49
2022/08/04 03:23:39;;;;;;;2.85;1.60;;;29.90;99.90;;;;;;5031754;28;20497;-49
2022/08/04 03:26:32;;;;;;;3.83;1.52;;;29.80;99.90;;;;;;5031799;28;20057;-49
2022/08/04 03:29:04;;;;;;;4.35;1.70;;;29.80;99.90;;;;;;5031708;28;20091;-49
2022/08/04 03:31:45;;;;;;;3.45;1.48;;;29.80;99.90;;;;;;5031659;28;20022;-48
2022/08/04 03:34:32;;;;;;;5.05;1.55;;;29.80;99.90;;;;;;5031438;28;20525;-48
2022/08/04 03:37:35;;;;;;;2.28;1.30;;;29.80;99.90;;;;;;5031518;28;20037;-48
2022/08/04 03:40:32;;;;;;;3.17;1.30;;;29.80;99.90;;;;;;5031618;28;20042;-47
2022/08/04 03:42:57;;;;;;;3.28;1.67;;;29.70;99.90;;;;;;5031546;28;20380;-48
2022/08/04 03:45:50;;;;;;;4.75;1.50;;;29.70;99.90;;;;;;5030087;28;20128;-48
2022/08/04 03:49:08;;;;;;;2.05;1.30;;;29.70;99.90;;;;;;5030153;28;20485;-48
2022/08/04 03:54:39;;;;;;;2.78;1.30;;;29.70;99.90;;;;;;5027597;28;20444;-48
2022/08/04 03:57:28;;;;;;;2.78;1.52;;;29.70;99.90;;;;;;5031486;28;20478;-48
2022/08/04 04:00:08;;;;;;;4.60;1.38;;;29.70;99.90;;;;;;5031549;28;20486;-48
2022/08/04 04:02:58;;;;;;;2.58;1.27;;;29.70;99.90;;;;;;5030700;28;20018;-48
2022/08/04 04:05:58;;;;;;;8.15;1.88;;;29.70;99.90;;;;;;5031108;28;20022;-48
2022/08/04 04:08:27;;;;;;;2.25;1.48;;;29.70;99.90;;;;;;5029734;28;20025;-48
2022/08/04 04:11:21;;;;;;;2.92;1.70;;;29.70;99.90;;;;;;5031064;28;20025;-47
2022/08/04 04:14:06;;;;;;;5.15;1.92;;;29.70;99.90;;;;;;5031096;28;20389;-47
2022/08/04 04:16:54;;;;;;;3.97;1.80;;;29.80;99.90;;;;;;5031190;28;20159;-47
2022/08/04 04:19:56;;;;;;;2.97;1.50;;;29.70;99.90;;;;;;5034527;28;20314;-47
2022/08/04 04:22:38;;;;;;;4.95;2.00;;;29.70;99.90;;;;;;5034980;28;20025;-47
2022/08/04 04:25:20;;;;;;;2.92;2.05;;;29.70;99.90;;;;;;5035157;28;20048;-48
2022/08/04 04:28:21;;;;;;;4.85;1.33;;;29.70;99.90;;;;;;5034990;28;20033;-47
2022/08/04 04:31:00;;;;;;;4.85;2.38;;;29.70;99.90;;;;;;5034981;28;20045;-48
2022/08/04 04:33:57;;;;;;;4.68;2.50;;;29.70;99.90;;;;;;5034882;28;20071;-48
2022/08/04 04:36:52;;;;;;;5.47;1.90;;;29.70;99.90;;;;;;5034783;28;20025;-49
2022/08/04 04:39:50;;;;;;;4.20;1.77;;;29.60;99.90;;;;;;5006150;28;20128;-49
2022/08/04 04:42:38;;;;;;;4.10;1.60;;;29.60;99.90;;;;;;5034717;28;20026;-48
2022/08/04 04:45:03;;;;;;;4.00;1.85;;;29.60;99.90;;;;;;5034487;28;20508;-48
2022/08/04 04:47:50;;;;;;;2.95;1.80;;;29.60;99.90;;;;;;5034688;28;20037;-49
2022/08/04 04:50:55;;;;;;;2.58;1.70;;;29.50;99.90;;;;;;5034717;28;20029;-49
2022/08/04 04:53:29;;;;;;;20.48;3.08;;;29.50;99.90;;;;;;5003367;28;20369;-49
2022/08/04 04:56:34;;;;;;;14.13;5.22;;;29.50;99.90;;;;;;5034286;28;20112;-49
2022/08/04 04:59:02;;;;;;;18.08;3.38;;;29.60;99.90;;;;;;5034490;28;20221;-49
2022/08/04 05:01:54;;;;;;;10.95;3.63;;;29.50;99.90;;;;;;5034257;28;20049;-49
2022/08/04 05:04:45;;;;;;;8.18;2.42;;;29.60;99.90;;;;;;5033917;28;20531;-49
2022/08/04 05:07:35;;;;;;;3.90;2.35;;;29.50;99.90;;;;;;5034313;28;20026;-49
2022/08/04 05:10:26;;;;;;;6.25;3.08;;;29.60;99.90;;;;;;5034194;28;20554;-49
2022/08/04 05:13:03;;;;;;;4.90;2.15;;;29.50;99.90;;;;;;5033063;28;20412;-49
2022/08/04 05:15:34;;;;;;;5.70;2.40;;;29.60;99.90;;;;;;5034016;28;20454;-49
2022/08/04 05:18:03;;;;;;;5.90;2.13;;;29.60;99.90;;;;;;5033990;28;20032;-49
2022/08/04 05:20:57;;;;;;;4.15;2.00;;;29.60;99.90;;;;;;5033948;28;20033;-49
2022/08/04 05:23:27;;;;;;;6.15;1.85;;;29.60;99.90;;;;;;5033883;28;20021;-49
2022/08/04 05:26:08;;;;;;;10.65;2.20;;;29.60;99.90;;;;;;5033856;28;20025;-49
2022/08/04 05:28:41;;;;;;;4.22;1.90;;;29.60;99.90;;;;;;5033768;28;20028;-49
2022/08/04 05:31:17;;;;;;;3.85;1.67;;;29.60;99.90;;;;;;5033285;28;20032;-49
2022/08/04 05:33:59;;;;;;;6.22;1.75;;;29.60;99.90;;;;;;5033598;28;20125;-49
2022/08/04 05:36:34;;;;;;;5.50;1.88;;;29.60;99.90;;;;;;5033530;28;20033;-49
2022/08/04 05:39:02;;;;;;;7.38;1.90;;;29.60;99.90;;;;;;5033313;28;20040;-49
2022/08/04 05:41:27;;;;;;;;;;;29.60;99.90;;;;;;5033981;28;20022;-49
2022/08/04 05:43:55;;;;;;;7.63;2.10;;;29.60;99.90;;;;;;5033459;28;19905;-49
2022/08/04 05:46:21;;;;;;;;;;;29.60;99.90;;;;;;5033921;28;20033;-49
2022/08/04 05:48:48;;;;;;;4.95;1.95;;;29.60;99.90;;;;;;5033524;28;19975;-49
2022/08/04 05:51:15;;;;;;;8.65;2.17;;;29.70;99.90;;;;;;5033395;28;20389;-49
2022/08/04 05:53:43;;;;;;;3.17;1.90;;;29.60;99.90;;;;;;5033603;28;20041;-48
2022/08/04 05:56:13;;;;;;;8.32;1.98;;;29.60;99.90;;;;;;5033433;28;20115;-49
2022/08/04 05:58:41;;;;;;;7.25;2.33;;;29.60;99.90;;;;;;5033232;28;20032;-49
2022/08/04 06:01:09;;;;;;;6.20;2.35;;;29.60;99.90;;;;;;5032923;28;20050;-49
2022/08/04 06:03:37;;;;;;;4.55;1.90;;;29.60;99.90;;;;;;5033094;28;20075;-49
2022/08/04 06:06:04;;;;;;;7.30;2.13;;;29.50;99.90;;;;;;5032949;28;20492;-49
2022/08/04 06:08:30;;;;;;;5.78;1.98;;;29.50;99.90;;;;;;5032976;28;20112;-49
2022/08/04 06:11:03;;;;;;;5.97;2.20;;;29.50;99.90;;;;;;5032875;28;20137;-49
2022/08/04 06:13:35;;;;;;;5.93;2.60;;;29.50;99.90;;;;;;5032879;28;20021;-49
2022/08/04 06:16:04;;;;;;;8.93;3.20;;;29.50;99.90;;;;;;5032878;28;20025;-49
2022/08/04 06:18:33;;;;;;;5.18;2.03;;;29.50;99.90;;;;;;5032689;28;20092;-49
2022/08/04 06:21:02;;;;;;;2.75;2.47;;;29.50;99.90;;;;;;5032694;28;20064;-49
2022/08/04 06:23:30;;;;;;;3.10;2.00;;;29.50;99.90;;;;;;5032703;28;20428;-49
2022/08/04 06:25:59;;;;;;;5.25;1.90;;;29.50;99.90;;;;;;5032603;28;20029;-49
2022/08/04 06:28:28;;;;;;;6.28;2.08;;;29.50;99.90;;;;;;5032481;28;20108;-49
2022/08/04 06:31:01;;;;;;;5.43;2.42;;;29.50;99.90;;;;;;5032338;28;20033;-49
2022/08/04 06:33:32;;;;;;;8.10;2.30;;;29.60;99.90;;;;;;5032143;28;20018;-49
2022/08/04 06:36:00;;;;;;;10.23;2.78;;;29.60;99.90;;;;;;5032285;28;20482;-49
2022/08/04 06:38:28;;;;;;;7.40;2.35;;;29.70;99.90;;;;;;5032134;28;20393;-49
2022/08/04 06:40:58;;;;;;;5.43;2.50;;;29.70;99.90;;;;;;5031785;28;20426;-49
2022/08/04 06:43:25;;;;;;;11.23;2.58;;;29.70;99.90;;;;;;5031710;28;20025;-49
2022/08/04 06:45:52;;;;;;;;;;;29.80;99.90;;;;;;5032502;28;20035;-49
2022/08/04 06:48:18;;;;;;;6.95;3.03;;;29.80;99.90;;;;;;5031883;28;19911;-49
2022/08/04 06:50:48;;;;;;;6.18;2.30;;;29.80;99.90;;;;;;5032029;28;20030;-49
2022/08/04 06:53:15;;;;;;;7.47;2.63;;;29.90;99.90;;;;;;5032305;28;20029;-49
2022/08/04 06:55:44;;;;;;;6.70;2.10;;;29.90;99.90;;;;;;5030596;28;20441;-49
2022/08/04 06:58:11;;;;;;;7.55;2.30;;;29.90;99.90;;;;;;5031949;28;20371;-49
2022/08/04 07:00:39;;;;;;;8.90;2.22;;;30.00;99.90;;;;;;5031664;28;20923;-49
2022/08/04 07:03:06;;;;;;;5.60;2.00;;;30.00;99.90;;;;;;5031771;28;20017;-49
2022/08/04 07:05:33;;;;;;;5.65;2.25;;;30.00;99.90;;;;;;5031721;28;20129;-49
2022/08/04 07:07:59;;;;;;;6.63;1.77;;;30.00;99.90;;;;;;5031728;28;20036;-49
2022/08/04 07:10:29;;;;;;;6.72;1.90;;;30.00;99.90;;;;;;5031592;28;20390;-49
2022/08/04 07:12:57;;;;;;;4.93;1.98;;;30.10;99.90;;;;;;5031637;28;20029;-49
2022/08/04 07:15:24;;;;;;;3.60;1.95;;;30.00;99.90;;;;;;5031546;28;20025;-49
2022/08/04 07:17:51;;;;;;;4.78;1.95;;;30.10;99.90;;;;;;5031583;28;20029;-49
2022/08/04 07:20:18;;;;;;;4.85;1.65;;;30.10;99.90;;;;;;5031783;28;20041;-49
2022/08/04 07:22:47;;;;;;;5.13;1.77;;;30.10;99.90;;;;;;5031658;28;20032;-48
2022/08/04 07:25:15;;;;;;;2.83;1.77;;;30.10;99.90;;;;;;5030077;28;20064;-49
2022/08/04 07:27:41;;;;;;;;;;;30.10;99.90;;;;;;5031947;28;20033;-48
2022/08/04 07:30:08;;;;;;;5.38;2.35;;;30.20;99.90;;;;;;5030146;28;20360;-49
2022/08/04 07:32:34;;;;;;;3.90;1.90;;;30.20;99.90;;;;;;5031314;28;20052;-49
2022/08/04 07:35:01;;;;;;;4.28;1.85;;;30.20;99.90;;;;;;5031254;28;20025;-49
2022/08/04 07:37:27;;;;;;;;;;;30.20;99.90;;;;;;5031694;28;20030;-49
2022/08/04 07:39:53;;;;;;;3.88;1.77;;;30.20;99.90;;;;;;5031216;28;20266;-49
2022/08/04 07:42:20;;;;;;;2.78;1.70;;;30.20;99.90;;;;;;5031317;28;20044;-49
2022/08/04 07:44:46;;;;;;;5.38;2.05;;;30.20;99.90;;;;;;5031295;28;20026;-49
2022/08/04 07:47:12;;;;;;;5.50;2.15;;;30.30;99.90;;;;;;5031126;28;20109;-49
2022/08/04 07:49:39;;;;;;;2.92;1.70;;;30.20;99.90;;;;;;5030979;28;20094;-50
2022/08/04 07:52:05;;;;;;;;;;;30.30;99.90;;;;;;5031318;28;20025;-49
2022/08/04 07:54:32;;;;;;;6.65;2.15;;;30.20;99.90;;;;;;5029670;28;19905;-49
2022/08/04 07:56:58;;;;;;;5.07;1.80;;;30.30;99.90;;;;;;5031120;28;20032;-48
2022/08/04 07:59:24;;;;;;;2.75;1.67;;;30.30;99.90;;;;;;5030968;28;20038;-48
2022/08/04 08:01:51;;;;;;;3.25;1.48;;;30.30;99.90;;;;;;5030795;28;20046;-48
2022/08/04 08:04:18;;;;;;;5.68;1.60;;;30.30;99.90;;;;;;5031124;28;20037;-48
2022/08/04 08:06:43;;;;;;;5.20;1.50;;;30.30;99.90;;;;;;5030823;28;20030;-48
2022/08/04 08:09:18;;;;;;;3.45;1.40;;;30.30;99.90;;;;;;5030876;28;20021;-48
2022/08/04 08:11:49;;;;;;;6.85;2.25;;;30.30;99.90;;;;;;5030827;28;20090;-48
2022/08/04 08:14:16;;;;;;;4.45;1.50;;;30.30;99.90;;;;;;5030873;28;20030;-48
2022/08/04 08:16:42;;;;;;;2.95;1.30;;;30.30;99.90;;;;;;5030888;28;20489;-48
2022/08/04 08:19:08;;;;;;;4.88;1.75;;;30.30;99.90;;;;;;5030740;28;20033;-48
2022/08/04 08:21:34;;;;;;;4.05;1.60;;;30.30;99.90;;;;;;5029568;28;20101;-49
2022/08/04 08:24:01;;;;;;;4.13;1.70;;;30.40;99.90;;;;;;5030719;28;20026;-48
2022/08/04 08:26:27;;;;;;;4.13;1.80;;;30.30;99.90;;;;;;5029445;28;20386;-48
2022/08/04 08:28:53;;;;;;;2.38;1.48;;;30.30;99.90;;;;;;5030705;28;20025;-47
2022/08/04 08:31:19;;;;;;;3.17;1.50;;;30.40;99.90;;;;;;5030825;28;20097;-48
2022/08/04 08:33:47;;;;;;;3.42;1.33;;;30.40;99.90;;;;;;5030707;28;20103;-48
2022/08/04 08:36:23;;;;;;;7.93;1.65;;;30.40;99.90;;;;;;5030498;28;20037;-48
2022/08/04 08:39:03;;;;;;;4.68;2.58;;;30.40;99.90;;;;;;5029466;28;20029;-48
2022/08/04 08:41:58;;;;;;;4.40;1.95;;;30.40;99.90;;;;;;5030495;28;20048;-48
2022/08/04 08:44:40;;;;;;;5.55;1.90;;;30.40;99.90;;;;;;5030521;28;20026;-48
2022/08/04 08:47:12;;;;;;;5.75;1.88;;;30.50;99.90;;;;;;5030638;28;20029;-48
2022/08/04 08:49:59;;;;;;;5.60;2.22;;;30.50;99.90;;;;;;5030385;28;20115;-48
2022/08/04 08:52:53;;;;;;;3.30;1.65;;;30.50;99.90;;;;;;5030489;28;20029;-47
2022/08/04 08:55:30;;;;;;;3.28;1.77;;;30.50;99.90;;;;;;5030516;28;20025;-48
2022/08/04 08:58:22;;;;;;;7.22;1.75;;;30.50;99.90;;;;;;5030300;28;20125;-49
2022/08/04 09:01:06;;;;;;;3.10;1.65;;;30.50;99.90;;;;;;5023077;28;20041;-49
2022/08/04 09:03:51;;;;;;;4.80;2.10;;;30.50;99.90;;;;;;5030294;28;20108;-49
2022/08/04 09:06:41;;;;;;;4.07;2.03;;;30.50;99.90;;;;;;5033458;28;20013;-48
2022/08/04 09:09:32;;;;;;;5.40;1.95;;;30.50;99.90;;;;;;5033665;28;20025;-48
2022/08/04 09:12:11;;;;;;;3.25;1.77;;;30.50;99.90;;;;;;5034050;28;20034;-49
2022/08/04 09:14:51;;;;;;;4.90;1.50;;;30.50;99.90;;;;;;5033940;28;20033;-48
2022/08/04 09:17:41;;;;;;;5.63;1.50;;;30.50;99.90;;;;;;5033754;28;20090;-49
2022/08/04 09:20:16;;;;;;;2.33;1.35;;;30.50;99.90;;;;;;5033905;28;20136;-48
2022/08/04 09:22:59;;;;;;;2.08;1.23;;;30.50;99.90;;;;;;5033676;28;20045;-49
2022/08/04 09:25:32;;;;;;;6.40;1.75;;;30.50;99.90;;;;;;5033731;28;20056;-49
2022/08/04 09:28:22;;;;;;;5.32;1.38;;;30.50;99.90;;;;;;5033677;28;20024;-49
2022/08/04 09:31:10;;;;;;;2.47;1.60;;;30.50;99.90;;;;;;5033509;28;20021;-49
2022/08/04 09:33:36;;;;;;;3.92;1.58;;;30.60;99.90;;;;;;5032119;28;20057;-49
2022/08/04 09:36:25;;;;;;;3.58;1.33;;;30.60;99.90;;;;;;5033444;28;20084;-49
2022/08/04 09:39:10;;;;;;;5.50;1.40;;;30.60;99.90;;;;;;5033519;28;20041;-49
2022/08/04 09:41:39;;;;;;;2.55;1.42;;;30.60;99.90;;;;;;5033287;28;20501;-49
2022/08/04 09:44:17;;;;;;;4.32;1.67;;;30.60;99.90;;;;;;5033248;28;20025;-49
2022/08/04 09:47:13;;;;;;;7.13;1.83;;;30.60;99.90;;;;;;5032970;28;20025;-48
2022/08/04 09:50:20;;;;;;;3.55;1.67;;;30.60;99.90;;;;;;5033207;28;20026;-48
2022/08/04 09:52:57;;;;;;;3.47;1.40;;;30.60;99.90;;;;;;5033015;28;20029;-48
2022/08/04 09:55:53;;;;;;;2.15;1.52;;;30.70;99.90;;;;;;5033238;28;20064;-49
2022/08/04 09:58:41;;;;;;;3.05;1.50;;;30.70;99.90;;;;;;5031280;28;20481;-49
2022/08/04 10:01:15;;;;;;;3.17;2.45;;;30.70;99.90;;;;;;5032749;28;20049;-48
2022/08/04 10:03:47;;;;;;;2.83;1.77;;;30.70;99.90;;;;;;5032740;28;20044;-48
2022/08/04 10:06:24;;;;;;;5.18;1.67;;;30.70;99.90;;;;;;5032785;28;20025;-49
2022/08/04 10:09:17;;;;;;;5.05;2.20;;;30.70;99.90;;;;;;5032923;28;20044;-50
2022/08/04 10:12:04;;;;;;;5.00;1.95;;;30.70;99.90;;;;;;5029840;28;20030;-49
2022/08/04 10:14:40;;;;;;;2.60;1.65;;;30.70;99.90;;;;;;5032356;28;20029;-48
2022/08/04 10:17:05;;;;;;;3.17;1.92;;;30.70;99.90;;;;;;5032644;28;20454;-49
2022/08/04 10:19:39;;;;;;;5.53;2.17;;;30.70;99.90;;;;;;5032526;28;20087;-48
2022/08/04 10:22:13;;;;;;;4.55;2.03;;;30.80;99.90;;;;;;5032322;28;20102;-49
2022/08/04 10:25:23;;;;;;;4.43;2.00;;;30.80;99.90;;;;;;5032652;28;20481;-49
2022/08/04 10:27:57;;;;;;;3.47;1.67;;;30.80;99.90;;;;;;5032647;28;20113;-49
2022/08/04 10:30:24;;;;;;;4.75;1.90;;;30.80;99.90;;;;;;5032601;28;20327;-48
2022/08/04 10:33:03;;;;;;;5.28;1.77;;;30.80;99.90;;;;;;5032350;28;20040;-47
2022/08/04 10:35:52;;;;;;;4.22;1.98;;;30.80;99.90;;;;;;5032230;28;20031;-48
2022/08/04 10:38:29;;;;;;;2.05;1.52;;;30.80;99.90;;;;;;5032219;28;20025;-48
2022/08/04 10:41:29;;;;;;;3.85;1.50;;;30.90;99.90;;;;;;5032177;28;20033;-48
2022/08/04 10:44:10;;;;;;;8.30;1.77;;;30.90;99.90;;;;;;5012444;28;20063;-48
2022/08/04 10:46:46;;;;;;;5.18;2.08;;;30.90;99.90;;;;;;5031999;28;20025;-48
2022/08/04 10:49:34;;;;;;;3.20;1.67;;;30.90;99.90;;;;;;5031934;28;20030;-48
2022/08/04 10:52:08;;;;;;;3.30;2.22;;;30.90;99.90;;;;;;5031841;28;20026;-48
2022/08/04 10:55:00;;;;;;;1.95;1.63;;;30.90;99.90;;;;;;5031964;28;20029;-49
2022/08/04 10:57:35;;;;;;;4.88;1.63;;;31.00;99.90;;;;;;5032104;28;20014;-48
2022/08/04 11:00:08;;;;;;;3.22;1.60;;;31.00;99.90;;;;;;5031422;28;20453;-48
2022/08/04 11:03:14;;;;;;;2.35;2.00;;;31.00;99.90;;;;;;5031764;28;20028;-48
2022/08/04 11:05:52;;;;;;;4.40;1.48;;;31.00;99.90;;;;;;5031683;28;20144;-49
2022/08/04 11:08:37;;;;;;;5.13;1.55;;;31.00;99.90;;;;;;5031691;28;20031;-49
2022/08/04 11:11:15;;;;;;;3.00;2.05;;;31.00;99.90;;;;;;5031626;28;20107;-49
2022/08/04 11:14:09;;;;;;;5.47;2.38;;;31.00;99.90;;;;;;5031458;28;20029;-49
2022/08/04 11:16:54;;;;;;;3.17;1.77;;;31.10;99.90;;;;;;5029357;28;20124;-49
2022/08/04 11:19:45;;;;;;;4.15;2.05;;;31.00;99.90;;;;;;5031651;28;20800;-49
2022/08/04 11:22:21;;;;;;;2.47;1.92;;;31.10;99.90;;;;;;5031365;28;20036;-49
2022/08/04 11:25:04;;;;;;;4.22;2.22;;;31.10;99.90;;;;;;5031475;28;20489;-49
2022/08/04 11:27:41;;;;;;;3.53;1.88;;;31.10;99.90;;;;;;5031149;28;20425;-49
2022/08/04 11:30:11;;;;;;;4.30;2.10;;;31.10;99.90;;;;;;5031354;28;20013;-49
2022/08/04 11:32:44;;;;;;;3.80;1.80;;;31.10;99.90;;;;;;5031232;28;20026;-48
2022/08/04 11:35:20;;;;;;;3.53;2.30;;;31.10;99.90;;;;;;5031215;28;20052;-48
2022/08/04 11:38:11;;;;;;;3.67;2.30;;;31.10;99.90;;;;;;5029830;28;20032;-49
2022/08/04 11:40:42;;;;;;;4.35;2.10;;;31.20;99.90;;;;;;5031120;28;20128;-48
2022/08/04 11:43:46;;;;;;;4.05;2.00;;;31.20;99.90;;;;;;5030900;28;20365;-48
2022/08/04 11:46:32;;;;;;;4.15;2.38;;;31.20;99.90;;;;;;4969689;28;20435;-49
2022/08/04 11:49:07;;;;;;;4.10;1.90;;;31.20;99.90;;;;;;5026756;28;20045;-49
2022/08/04 11:51:35;;;;;;;3.22;1.70;;;31.20;99.90;;;;;;5030938;28;20476;-49
2022/08/04 11:54:01;;;;;;;5.32;2.20;;;31.30;99.90;;;;;;5031187;28;20151;-48
2022/08/04 11:56:28;;;;;;;6.72;2.60;;;31.30;99.90;;;;;;5030823;28;20488;-49
2022/08/04 11:58:55;;;;;;;4.70;2.33;;;31.30;99.90;;;;;;5030755;28;20030;-48
2022/08/04 12:01:26;;;;;;;;;;;31.40;99.90;;;;;;5031282;28;20053;-48
2022/08/04 12:04:36;;;;;;;3.75;1.50;;;31.40;99.90;;;;;;5030769;28;19940;-48
2022/08/04 12:07:28;;;;;;;6.20;1.70;;;31.50;99.90;;;;;;5027891;28;20034;-49
2022/08/04 12:10:19;;;;;;;4.90;1.60;;;31.50;99.90;;;;;;5019729;28;20037;-49
2022/08/04 12:13:08;;;;;;;5.35;1.85;;;31.60;99.90;;;;;;5030493;28;20378;-49
2022/08/04 12:15:45;;;;;;;4.22;2.20;;;31.60;99.90;;;;;;5030654;28;20081;-49
2022/08/04 12:18:32;;;;;;;3.95;1.70;;;31.60;99.90;;;;;;5030697;28;20314;-48
2022/08/04 12:21:04;;;;;;;4.40;2.10;;;31.70;99.90;;;;;;5030611;28;20100;-49
2022/08/04 12:23:37;;;;;;;7.38;1.85;;;31.60;99.90;;;;;;5030882;28;20025;-49
2022/08/04 12:26:07;;;;;;;3.30;1.33;;;31.70;99.90;;;;;;5030926;28;20105;-48
2022/08/04 12:28:35;;;;;;;3.75;2.15;;;31.70;99.90;;;;;;5030884;28;20581;-48
2022/08/04 12:31:22;;;;;;;6.45;1.70;;;31.70;99.90;;;;;;5030742;28;20377;-48
2022/08/04 12:34:20;;;;;;;5.72;1.67;;;31.70;99.90;;;;;;5030579;28;20484;-49
2022/08/04 12:37:03;;;;;;;5.85;1.48;;;31.80;99.90;;;;;;5017799;28;20112;-48
2022/08/04 12:39:30;;;;;;;4.90;1.48;;;31.80;99.90;;;;;;5030984;28;20072;-48
2022/08/04 12:42:08;;;;;;;4.75;1.50;;;31.80;99.90;;;;;;5034438;28;20099;-49
2022/08/04 12:44:37;;;;;;;4.32;1.70;;;31.90;99.90;;;;;;5034769;28;20029;-48
2022/08/04 12:47:13;;;;;;;2.92;1.73;;;31.90;99.90;;;;;;5034518;28;20029;-47
2022/08/04 12:49:43;;;;;;;3.78;2.10;;;32.00;99.90;;;;;;5034351;28;20101;-48
2022/08/04 12:52:10;;;;;;;9.02;2.20;;;32.00;99.90;;;;;;5034137;28;20029;-48
2022/08/04 12:54:38;;;;;;;3.70;2.40;;;32.00;99.90;;;;;;5034234;28;20116;-47
2022/08/04 12:57:06;;;;;;;2.63;1.63;;;32.00;99.90;;;;;;5034303;28;20022;-48
2022/08/04 12:59:40;;;;;;;6.72;1.60;;;32.00;99.90;;;;;;5034052;28;20025;-50
2022/08/04 13:02:17;;;;;;;5.50;2.40;;;31.90;99.90;;;;;;5033987;28;20034;-48
2022/08/04 13:04:44;;;;;;;3.92;1.77;;;31.90;99.90;;;;;;5034038;28;20079;-48
2022/08/04 13:07:17;;;;;;;2.80;1.35;;;32.00;99.90;;;;;;5034074;28;20097;-48
2022/08/04 13:09:45;;;;;;;2.45;1.63;;;32.00;99.90;;;;;;5033949;28;20040;-48
2022/08/04 13:12:19;;;;;;;2.80;1.58;;;32.00;99.90;;;;;;5033883;28;20057;-50
2022/08/04 13:14:57;;;;;;;3.63;1.45;;;32.00;99.90;;;;;;5034069;28;20730;-48
2022/08/04 13:17:24;;;;;;;2.75;1.48;;;32.00;99.90;;;;;;5033659;28;20458;-48
2022/08/04 13:19:51;;;;;;;2.00;1.52;;;32.00;99.90;;;;;;5033525;28;20452;-48
2022/08/04 13:22:26;;;;;;;9.65;3.17;;;32.10;99.90;;;;;;5032200;28;20051;-48
2022/08/04 13:24:54;;;;;;;4.05;1.35;;;32.00;99.90;;;;;;5033656;28;20029;-49
2022/08/04 13:27:22;;;;;;;5.57;1.58;;;32.00;99.90;;;;;;5033588;28;20076;-49
2022/08/04 13:29:51;;;;;;;7.63;3.63;;;32.00;99.90;;;;;;5033756;28;20025;-48
2022/08/04 13:32:21;;;;;;;6.50;2.63;;;32.00;99.90;;;;;;5015905;28;20486;-48
2022/08/04 13:34:49;;;;;;;5.43;1.77;;;32.00;99.90;;;;;;5033563;28;20375;-49
2022/08/04 13:37:18;;;;;;;5.07;1.83;;;32.00;99.90;;;;;;5033567;28;20071;-48
2022/08/04 13:39:46;;;;;;;3.92;1.75;;;32.00;99.90;;;;;;5032216;28;20032;-48
2022/08/04 13:42:15;;;;;;;3.92;2.13;;;32.00;99.90;;;;;;5033540;28;20104;-49
2022/08/04 13:44:46;;;;;;;6.63;2.58;;;32.00;99.90;;;;;;5033333;28;20503;-48